Aviation Digital Data Service (ADDS)

Output produced by METARs form (0932 UTC 24 March 2019)
found at http://www.aviationweather.gov/metar/data/
 
Forecast for: DNIM (SAM MBAKWE , NG)
Text: TAF DNIM 240345Z 2406/2512 VRB02KT 8000 SCT009
Forecast period: 0600 to 0800 UTC 24 March 2019
Forecast type: FROM: standard forecast or significant change
Winds: variable direction winds at 2 MPH (2 knots; 1.0 m/s)
Visibility: 5 miles (8 km)
Ceiling: at least 12,000 feet AGL
Clouds: scattered clouds at 900 feet AGL
Weather: no significant weather forecast for this period
Text: BECMG 2408/2410 24010KT BKN012 FEW020CB
Forecast period: 0800 UTC 24 March 2019 to 1200 UTC 25 March 2019
Forecast type: BECOMING: Conditions expected to become as follows by 1000 UTC 24 March 2019
Winds: from the WSW (240 degrees) at 12 MPH (10 knots; 5.1 m/s)
Visibility: 5 miles (8 km)
Ceiling: 1200 feet AGL
Clouds: broken clouds at 1200 feet AGL
few clouds at 2000 feet AGL
Weather: no significant weather forecast for this period
Text: TEMPO 2414/2419 TS
Forecast period: 1400 to 1900 UTC 24 March 2019
Forecast type: TEMPORARY: The following changes expected for less than half the time period
Visibility: missing
Ceiling: unknown
Clouds: missing
Weather: TS  (thunderstorm)